sensor_id;sensor_type;location;lat;lon;timestamp;pressure;altitude;pressure_sealevel;temperature;humidity
15646;BME280;7922;43.622;1.476;2023-01-25T00:00:12;101504.72;;;-2.34;91.46
15646;BME280;7922;43.622;1.476;2023-01-25T00:02:38;101581.56;;;-1.88;90.73
15646;BME280;7922;43.622;1.476;2023-01-25T00:05:03;101593.03;;;-1.82;90.73
15646;BME280;7922;43.622;1.476;2023-01-25T00:07:28;101600.75;;;-1.85;90.64
15646;BME280;7922;43.622;1.476;2023-01-25T00:09:54;101588.88;;;-2.02;91.84
15646;BME280;7922;43.622;1.476;2023-01-25T00:12:19;101572.09;;;-2.12;91.29
15646;BME280;7922;43.622;1.476;2023-01-25T00:14:44;101567.69;;;-2.14;92.06
15646;BME280;7922;43.622;1.476;2023-01-25T00:17:09;101444.06;;;-2.87;91.64
15646;BME280;7922;43.622;1.476;2023-01-25T00:19:35;101589.53;;;-2.08;92.32
15646;BME280;7922;43.622;1.476;2023-01-25T00:22:00;101447.44;;;-2.90;91.39
15646;BME280;7922;43.622;1.476;2023-01-25T00:24:25;101506.59;;;-2.54;92.17
15646;BME280;7922;43.622;1.476;2023-01-25T00:26:50;101520.63;;;-2.49;91.96
15646;BME280;7922;43.622;1.476;2023-01-25T00:29:16;101652.22;;;-1.73;91.20
15646;BME280;7922;43.622;1.476;2023-01-25T00:32:05;101499.41;;;-2.63;91.53
15646;BME280;7922;43.622;1.476;2023-01-25T00:34:50;101600.03;;;-2.05;91.99
15646;BME280;7922;43.622;1.476;2023-01-25T00:39:47;101532.03;;;-2.20;92.29
15646;BME280;7922;43.622;1.476;2023-01-25T00:42:14;101588.13;;;-2.00;91.70
15646;BME280;7922;43.622;1.476;2023-01-25T00:44:40;101587.56;;;-1.89;92.33
15646;BME280;7922;43.622;1.476;2023-01-25T00:47:06;101492.38;;;-2.42;91.58
15646;BME280;7922;43.622;1.476;2023-01-25T00:49:32;101623.66;;;-1.73;91.31
15646;BME280;7922;43.622;1.476;2023-01-25T00:51:58;101483.22;;;-2.56;91.62
15646;BME280;7922;43.622;1.476;2023-01-25T00:54:24;101569.13;;;-2.23;91.38
15646;BME280;7922;43.622;1.476;2023-01-25T00:56:50;101586.53;;;-2.20;91.06
15646;BME280;7922;43.622;1.476;2023-01-25T00:59:15;101611.13;;;-2.10;91.29
15646;BME280;7922;43.622;1.476;2023-01-25T01:01:41;101461.66;;;-3.03;91.84
15646;BME280;7922;43.622;1.476;2023-01-25T01:04:06;101418.22;;;-3.10;92.39
15646;BME280;7922;43.622;1.476;2023-01-25T01:06:34;101557.16;;;-2.19;91.48
15646;BME280;7922;43.622;1.476;2023-01-25T01:08:59;101537.69;;;-2.32;91.07
15646;BME280;7922;43.622;1.476;2023-01-25T01:11:25;101539.09;;;-2.40;91.65
15646;BME280;7922;43.622;1.476;2023-01-25T01:13:50;101578.78;;;-2.19;91.58
15646;BME280;7922;43.622;1.476;2023-01-25T01:16:15;101536.44;;;-2.43;91.52
15646;BME280;7922;43.622;1.476;2023-01-25T01:18:43;101603.59;;;-2.03;90.89
15646;BME280;7922;43.622;1.476;2023-01-25T01:21:10;101591.00;;;-2.16;91.00
15646;BME280;7922;43.622;1.476;2023-01-25T01:23:35;101407.44;;;-3.21;91.22
15646;BME280;7922;43.622;1.476;2023-01-25T01:26:02;101558.34;;;-2.35;90.63
15646;BME280;7922;43.622;1.476;2023-01-25T01:28:29;101448.44;;;-3.10;91.04
15646;BME280;7922;43.622;1.476;2023-01-25T01:31:02;101580.00;;;-2.33;91.11
15646;BME280;7922;43.622;1.476;2023-01-25T01:33:27;101584.00;;;-2.43;91.39
15646;BME280;7922;43.622;1.476;2023-01-25T01:35:53;101557.56;;;-2.56;91.61
15646;BME280;7922;43.622;1.476;2023-01-25T01:38:18;101646.94;;;-2.24;92.06
15646;BME280;7922;43.622;1.476;2023-01-25T01:40:44;101578.19;;;-2.59;91.94
15646;BME280;7922;43.622;1.476;2023-01-25T01:43:23;101474.66;;;-3.25;92.11
15646;BME280;7922;43.622;1.476;2023-01-25T01:45:52;101608.13;;;-2.45;92.25
15646;BME280;7922;43.622;1.476;2023-01-25T01:54:07;101557.06;;;-2.70;92.81
15646;BME280;7922;43.622;1.476;2023-01-25T01:56:40;101568.44;;;-2.67;91.61
15646;BME280;7922;43.622;1.476;2023-01-25T01:59:08;101640.53;;;-2.34;92.35
15646;BME280;7922;43.622;1.476;2023-01-25T02:01:34;101575.97;;;-2.73;92.26
15646;BME280;7922;43.622;1.476;2023-01-25T02:04:00;101552.47;;;-3.01;92.56
15646;BME280;7922;43.622;1.476;2023-01-25T02:09:25;101611.53;;;-2.70;92.77
15646;BME280;7922;43.622;1.476;2023-01-25T02:11:53;101610.03;;;-2.63;92.84
15646;BME280;7922;43.622;1.476;2023-01-25T02:14:20;101645.00;;;-2.54;92.79
15646;BME280;7922;43.622;1.476;2023-01-25T02:16:46;101604.69;;;-2.91;92.64
15646;BME280;7922;43.622;1.476;2023-01-25T02:19:16;101520.28;;;-3.29;92.91
15646;BME280;7922;43.622;1.476;2023-01-25T02:21:46;101636.97;;;-2.60;92.94
15646;BME280;7922;43.622;1.476;2023-01-25T02:24:19;101610.63;;;-2.71;92.06
15646;BME280;7922;43.622;1.476;2023-01-25T02:26:47;101443.66;;;-3.69;91.67
15646;BME280;7922;43.622;1.476;2023-01-25T02:29:13;101507.50;;;-3.24;92.33
15646;BME280;7922;43.622;1.476;2023-01-25T02:31:43;101494.38;;;-3.29;92.30
15646;BME280;7922;43.622;1.476;2023-01-25T02:34:08;101603.41;;;-2.55;92.29
15646;BME280;7922;43.622;1.476;2023-01-25T02:36:34;101576.69;;;-2.77;92.85
15646;BME280;7922;43.622;1.476;2023-01-25T02:39:02;101589.34;;;-2.62;92.69
15646;BME280;7922;43.622;1.476;2023-01-25T02:41:37;101526.97;;;-2.89;92.10
15646;BME280;7922;43.622;1.476;2023-01-25T02:44:05;101579.25;;;-2.54;92.81
15646;BME280;7922;43.622;1.476;2023-01-25T02:46:34;101605.69;;;-2.40;91.64
15646;BME280;7922;43.622;1.476;2023-01-25T02:49:00;101419.22;;;-3.53;91.62
15646;BME280;7922;43.622;1.476;2023-01-25T02:51:27;101559.25;;;-2.81;91.79
15646;BME280;7922;43.622;1.476;2023-01-25T02:53:53;101410.69;;;-3.73;91.77
15646;BME280;7922;43.622;1.476;2023-01-25T02:56:18;101512.81;;;-3.21;91.51
15646;BME280;7922;43.622;1.476;2023-01-25T02:58:44;101524.72;;;-3.26;92.18
15646;BME280;7922;43.622;1.476;2023-01-25T03:01:11;101578.38;;;-3.01;91.69
15646;BME280;7922;43.622;1.476;2023-01-25T03:03:36;101586.44;;;-2.94;92.34
15646;BME280;7922;43.622;1.476;2023-01-25T03:06:01;101539.72;;;-3.18;92.55
15646;BME280;7922;43.622;1.476;2023-01-25T03:08:27;101403.72;;;-3.96;93.18
15646;BME280;7922;43.622;1.476;2023-01-25T03:10:58;101559.44;;;-2.99;92.79
15646;BME280;7922;43.622;1.476;2023-01-25T03:13:24;101580.72;;;-2.85;93.17
15646;BME280;7922;43.622;1.476;2023-01-25T03:15:50;101577.41;;;-2.81;93.29
15646;BME280;7922;43.622;1.476;2023-01-25T03:18:15;101538.81;;;-2.96;93.26
15646;BME280;7922;43.622;1.476;2023-01-25T03:20:40;101484.19;;;-3.24;92.46
15646;BME280;7922;43.622;1.476;2023-01-25T03:23:06;101505.88;;;-3.22;92.02
15646;BME280;7922;43.622;1.476;2023-01-25T03:25:31;101422.06;;;-3.69;91.96
15646;BME280;7922;43.622;1.476;2023-01-25T03:27:56;101569.47;;;-2.85;91.61
15646;BME280;7922;43.622;1.476;2023-01-25T03:30:22;101500.28;;;-3.33;91.65
15646;BME280;7922;43.622;1.476;2023-01-25T03:32:47;101462.25;;;-3.56;91.58
15646;BME280;7922;43.622;1.476;2023-01-25T03:35:12;101450.41;;;-3.72;92.26
15646;BME280;7922;43.622;1.476;2023-01-25T03:37:37;101633.72;;;-2.77;92.99
15646;BME280;7922;43.622;1.476;2023-01-25T03:40:03;101579.19;;;-3.02;93.09
15646;BME280;7922;43.622;1.476;2023-01-25T03:42:29;101541.66;;;-3.34;92.12
15646;BME280;7922;43.622;1.476;2023-01-25T03:44:54;101588.91;;;-2.97;92.25
15646;BME280;7922;43.622;1.476;2023-01-25T03:47:19;101455.63;;;-3.71;92.61
15646;BME280;7922;43.622;1.476;2023-01-25T03:49:44;101148.34;;;-5.56;92.01
15646;BME280;7922;43.622;1.476;2023-01-25T03:52:10;101624.78;;;-2.85;92.26
15646;BME280;7922;43.622;1.476;2023-01-25T03:54:35;101452.16;;;-3.71;91.76
15646;BME280;7922;43.622;1.476;2023-01-25T03:57:00;101547.38;;;-3.21;91.88
15646;BME280;7922;43.622;1.476;2023-01-25T03:59:25;101537.78;;;-3.23;92.88
15646;BME280;7922;43.622;1.476;2023-01-25T04:01:51;101458.47;;;-3.65;91.51
15646;BME280;7922;43.622;1.476;2023-01-25T04:04:16;101458.44;;;-3.66;91.98
15646;BME280;7922;43.622;1.476;2023-01-25T04:06:42;101619.78;;;-2.80;91.82
15646;BME280;7922;43.622;1.476;2023-01-25T04:09:07;101429.00;;;-3.91;91.48
15646;BME280;7922;43.622;1.476;2023-01-25T04:11:33;101445.06;;;-3.77;91.71
15646;BME280;7922;43.622;1.476;2023-01-25T04:13:58;101553.31;;;-3.23;91.66
15646;BME280;7922;43.622;1.476;2023-01-25T04:16:23;101585.31;;;-3.00;90.90
15646;BME280;7922;43.622;1.476;2023-01-25T04:18:49;101412.00;;;-4.06;91.45
15646;BME280;7922;43.622;1.476;2023-01-25T04:21:14;101556.31;;;-3.35;91.71
15646;BME280;7922;43.622;1.476;2023-01-25T04:23:39;101585.41;;;-3.20;92.65
15646;BME280;7922;43.622;1.476;2023-01-25T04:26:07;101598.19;;;-3.02;92.30
15646;BME280;7922;43.622;1.476;2023-01-25T04:28:33;101540.03;;;-3.32;92.64
15646;BME280;7922;43.622;1.476;2023-01-25T04:30:59;101543.66;;;-3.27;92.48
15646;BME280;7922;43.622;1.476;2023-01-25T04:33:25;101405.81;;;-4.10;92.59
15646;BME280;7922;43.622;1.476;2023-01-25T04:35:51;101602.75;;;-2.96;92.90
15646;BME280;7922;43.622;1.476;2023-01-25T04:38:17;101445.53;;;-3.87;92.13
15646;BME280;7922;43.622;1.476;2023-01-25T04:40:43;101391.88;;;-4.14;92.58
15646;BME280;7922;43.622;1.476;2023-01-25T04:43:10;101534.66;;;-3.37;92.40
15646;BME280;7922;43.622;1.476;2023-01-25T04:45:36;101564.38;;;-3.27;92.29
15646;BME280;7922;43.622;1.476;2023-01-25T04:48:04;101471.09;;;-3.74;92.61
15646;BME280;7922;43.622;1.476;2023-01-25T04:50:30;101557.41;;;-3.30;92.54
15646;BME280;7922;43.622;1.476;2023-01-25T04:52:56;101480.16;;;-3.63;92.70
15646;BME280;7922;43.622;1.476;2023-01-25T04:55:21;101552.25;;;-3.28;92.27
15646;BME280;7922;43.622;1.476;2023-01-25T04:57:50;101540.06;;;-3.31;92.17
15646;BME280;7922;43.622;1.476;2023-01-25T05:00:16;101510.94;;;-3.48;91.93
15646;BME280;7922;43.622;1.476;2023-01-25T05:02:42;101561.28;;;-3.19;91.74
15646;BME280;7922;43.622;1.476;2023-01-25T05:05:08;101379.31;;;-4.25;92.75
15646;BME280;7922;43.622;1.476;2023-01-25T05:07:33;101535.72;;;-3.32;93.09
15646;BME280;7922;43.622;1.476;2023-01-25T05:09:58;101543.50;;;-3.32;92.67
15646;BME280;7922;43.622;1.476;2023-01-25T05:12:24;101519.25;;;-3.34;92.43
15646;BME280;7922;43.622;1.476;2023-01-25T05:14:49;101533.88;;;-3.34;92.34
15646;BME280;7922;43.622;1.476;2023-01-25T05:17:14;101583.50;;;-3.03;92.92
15646;BME280;7922;43.622;1.476;2023-01-25T05:19:39;101392.50;;;-4.19;92.46
15646;BME280;7922;43.622;1.476;2023-01-25T05:22:05;101520.59;;;-3.44;93.10
15646;BME280;7922;43.622;1.476;2023-01-25T05:24:31;101454.34;;;-3.82;92.42
15646;BME280;7922;43.622;1.476;2023-01-25T05:26:57;101518.75;;;-3.46;92.40
15646;BME280;7922;43.622;1.476;2023-01-25T05:29:22;101379.25;;;-4.27;91.88
15646;BME280;7922;43.622;1.476;2023-01-25T05:31:47;101568.09;;;-3.21;92.24
15646;BME280;7922;43.622;1.476;2023-01-25T05:34:13;101545.84;;;-3.38;92.41
15646;BME280;7922;43.622;1.476;2023-01-25T05:36:38;101521.03;;;-3.54;92.52
15646;BME280;7922;43.622;1.476;2023-01-25T05:39:04;101563.38;;;-3.31;92.11
15646;BME280;7922;43.622;1.476;2023-01-25T05:41:30;101561.78;;;-3.27;91.63
15646;BME280;7922;43.622;1.476;2023-01-25T05:43:55;101552.38;;;-3.25;91.73
15646;BME280;7922;43.622;1.476;2023-01-25T05:46:20;101482.63;;;-3.66;91.47
15646;BME280;7922;43.622;1.476;2023-01-25T05:48:46;101457.00;;;-3.80;91.75
15646;BME280;7922;43.622;1.476;2023-01-25T05:51:12;101462.31;;;-3.77;91.39
15646;BME280;7922;43.622;1.476;2023-01-25T05:53:37;101569.69;;;-3.24;91.58
15646;BME280;7922;43.622;1.476;2023-01-25T05:56:06;101554.81;;;-3.30;91.85
15646;BME280;7922;43.622;1.476;2023-01-25T05:58:31;101478.78;;;-3.75;91.45
15646;BME280;7922;43.622;1.476;2023-01-25T06:01:00;101401.97;;;-4.20;91.59
15646;BME280;7922;43.622;1.476;2023-01-25T06:03:26;101585.78;;;-3.10;91.55
15646;BME280;7922;43.622;1.476;2023-01-25T06:05:59;101580.56;;;-3.12;91.44
15646;BME280;7922;43.622;1.476;2023-01-25T06:08:24;101573.88;;;-3.28;91.50
15646;BME280;7922;43.622;1.476;2023-01-25T06:10:50;101534.38;;;-3.45;91.63
15646;BME280;7922;43.622;1.476;2023-01-25T06:13:16;101451.53;;;-3.88;91.46
15646;BME280;7922;43.622;1.476;2023-01-25T06:15:41;101549.81;;;-3.25;91.43
15646;BME280;7922;43.622;1.476;2023-01-25T06:18:06;101417.63;;;-3.94;91.47
15646;BME280;7922;43.622;1.476;2023-01-25T06:20:32;101579.88;;;-3.06;91.43
15646;BME280;7922;43.622;1.476;2023-01-25T06:22:57;101519.28;;;-3.32;90.57
15646;BME280;7922;43.622;1.476;2023-01-25T06:25:23;101549.09;;;-3.21;90.89
15646;BME280;7922;43.622;1.476;2023-01-25T06:27:48;101522.94;;;-3.27;90.95
15646;BME280;7922;43.622;1.476;2023-01-25T06:30:13;101496.31;;;-3.46;90.46
15646;BME280;7922;43.622;1.476;2023-01-25T06:32:39;101611.28;;;-2.76;90.39
15646;BME280;7922;43.622;1.476;2023-01-25T06:35:04;101527.47;;;-3.22;90.67
15646;BME280;7922;43.622;1.476;2023-01-25T06:37:30;101495.69;;;-3.40;90.07
15646;BME280;7922;43.622;1.476;2023-01-25T06:39:55;101425.75;;;-3.85;90.10
15646;BME280;7922;43.622;1.476;2023-01-25T06:42:23;101586.06;;;-3.03;90.86
15646;BME280;7922;43.622;1.476;2023-01-25T06:44:48;101458.34;;;-3.68;90.52
15646;BME280;7922;43.622;1.476;2023-01-25T06:47:14;101572.66;;;-2.93;90.82
15646;BME280;7922;43.622;1.476;2023-01-25T06:49:40;101557.97;;;-2.92;90.29
15646;BME280;7922;43.622;1.476;2023-01-25T06:52:05;101411.59;;;-3.72;90.24
15646;BME280;7922;43.622;1.476;2023-01-25T06:54:30;101544.00;;;-2.96;89.88
15646;BME280;7922;43.622;1.476;2023-01-25T06:56:55;101566.38;;;-2.75;89.96
15646;BME280;7922;43.622;1.476;2023-01-25T06:59:21;101599.38;;;-2.47;90.16
15646;BME280;7922;43.622;1.476;2023-01-25T07:01:46;101424.19;;;-3.35;89.88
15646;BME280;7922;43.622;1.476;2023-01-25T07:04:11;101413.56;;;-3.43;90.52
15646;BME280;7922;43.622;1.476;2023-01-25T07:06:37;101463.81;;;-3.15;90.03
15646;BME280;7922;43.622;1.476;2023-01-25T07:09:10;101585.78;;;-2.42;90.22
15646;BME280;7922;43.622;1.476;2023-01-25T07:11:35;101451.56;;;-3.19;90.47
15646;BME280;7922;43.622;1.476;2023-01-25T07:14:01;101561.88;;;-2.57;90.61
15646;BME280;7922;43.622;1.476;2023-01-25T07:16:27;101465.81;;;-3.08;90.86
15646;BME280;7922;43.622;1.476;2023-01-25T07:18:53;101554.22;;;-2.54;90.38
15646;BME280;7922;43.622;1.476;2023-01-25T07:21:20;101618.56;;;-2.20;90.35
15646;BME280;7922;43.622;1.476;2023-01-25T07:23:47;101545.47;;;-2.56;90.78
15646;BME280;7922;43.622;1.476;2023-01-25T07:26:16;101613.47;;;-2.16;90.76
15646;BME280;7922;43.622;1.476;2023-01-25T07:28:42;101575.66;;;-2.34;89.81
15646;BME280;7922;43.622;1.476;2023-01-25T07:31:08;101467.09;;;-2.97;90.27
15646;BME280;7922;43.622;1.476;2023-01-25T07:33:34;101538.91;;;-2.46;90.55
15646;BME280;7922;43.622;1.476;2023-01-25T07:36:04;101434.00;;;-3.04;89.88
15646;BME280;7922;43.622;1.476;2023-01-25T07:38:29;101423.13;;;-3.18;90.66
15646;BME280;7922;43.622;1.476;2023-01-25T07:40:55;101414.50;;;-3.17;90.85
15646;BME280;7922;43.622;1.476;2023-01-25T07:43:20;101586.34;;;-2.01;91.56
15646;BME280;7922;43.622;1.476;2023-01-25T07:45:45;101451.59;;;-2.70;90.78
15646;BME280;7922;43.622;1.476;2023-01-25T07:48:11;101550.09;;;-1.98;91.17
15646;BME280;7922;43.622;1.476;2023-01-25T07:50:36;101551.41;;;-1.85;91.16
15646;BME280;7922;43.622;1.476;2023-01-25T07:53:01;101534.72;;;-1.91;91.30
15646;BME280;7922;43.622;1.476;2023-01-25T07:55:26;101596.94;;;-1.42;92.28
15646;BME280;7922;43.622;1.476;2023-01-25T07:57:55;101599.09;;;-1.29;91.89
15646;BME280;7922;43.622;1.476;2023-01-25T08:00:20;101607.91;;;-1.24;91.67
15646;BME280;7922;43.622;1.476;2023-01-25T08:02:49;101553.81;;;-1.37;91.60
15646;BME280;7922;43.622;1.476;2023-01-25T08:05:14;101531.31;;;-1.35;90.89
15646;BME280;7922;43.622;1.476;2023-01-25T08:07:39;101516.44;;;-1.40;90.54
15646;BME280;7922;43.622;1.476;2023-01-25T08:10:05;101620.03;;;-0.68;90.94
15646;BME280;7922;43.622;1.476;2023-01-25T08:12:30;101602.31;;;-0.80;90.60
15646;BME280;7922;43.622;1.476;2023-01-25T08:14:56;101536.81;;;-0.97;90.75
15646;BME280;7922;43.622;1.476;2023-01-25T08:17:21;101672.44;;;-0.26;90.11
15646;BME280;7922;43.622;1.476;2023-01-25T08:19:46;101482.13;;;-1.29;89.60
15646;BME280;7922;43.622;1.476;2023-01-25T08:22:11;101506.94;;;-1.11;90.20
15646;BME280;7922;43.622;1.476;2023-01-25T08:24:37;101617.41;;;-0.40;90.23
15646;BME280;7922;43.622;1.476;2023-01-25T08:27:02;101595.13;;;-0.60;89.84
15646;BME280;7922;43.622;1.476;2023-01-25T08:29:27;101625.34;;;-0.35;90.20
15646;BME280;7922;43.622;1.476;2023-01-25T08:31:53;101491.31;;;-1.11;89.94
15646;BME280;7922;43.622;1.476;2023-01-25T08:34:18;101522.28;;;-0.90;90.29
15646;BME280;7922;43.622;1.476;2023-01-25T08:36:44;101613.31;;;-0.30;89.76
15646;BME280;7922;43.622;1.476;2023-01-25T08:39:11;101523.78;;;-0.68;89.08
15646;BME280;7922;43.622;1.476;2023-01-25T08:41:36;101553.31;;;-0.66;89.70
15646;BME280;7922;43.622;1.476;2023-01-25T08:44:02;101594.78;;;-0.41;89.22
15646;BME280;7922;43.622;1.476;2023-01-25T08:46:29;101537.13;;;-0.86;90.10
15646;BME280;7922;43.622;1.476;2023-01-25T08:48:56;101627.66;;;-0.14;89.13
15646;BME280;7922;43.622;1.476;2023-01-25T08:51:22;101493.81;;;-0.84;89.35
15646;BME280;7922;43.622;1.476;2023-01-25T08:53:47;101583.03;;;-0.28;89.41
15646;BME280;7922;43.622;1.476;2023-01-25T08:56:14;101611.28;;;-0.10;88.80
15646;BME280;7922;43.622;1.476;2023-01-25T08:58:42;101653.56;;;0.11;89.45
15646;BME280;7922;43.622;1.476;2023-01-25T09:01:09;101542.59;;;-0.47;88.92
15646;BME280;7922;43.622;1.476;2023-01-25T09:03:40;101632.25;;;-0.04;88.57
15646;BME280;7922;43.622;1.476;2023-01-25T09:06:06;101540.66;;;-0.54;88.56
15646;BME280;7922;43.622;1.476;2023-01-25T09:08:32;101668.22;;;0.08;89.74
15646;BME280;7922;43.622;1.476;2023-01-25T09:11:05;101629.53;;;-0.09;88.86
15646;BME280;7922;43.622;1.476;2023-01-25T09:13:30;101610.06;;;-0.23;89.41
15646;BME280;7922;43.622;1.476;2023-01-25T09:16:04;101631.06;;;-0.17;89.34
15646;BME280;7922;43.622;1.476;2023-01-25T09:18:30;101561.72;;;-0.45;88.86
15646;BME280;7922;43.622;1.476;2023-01-25T09:20:55;101646.19;;;-0.04;89.74
15646;BME280;7922;43.622;1.476;2023-01-25T09:23:21;101502.69;;;-0.78;89.14
15646;BME280;7922;43.622;1.476;2023-01-25T09:25:47;101674.31;;;0.08;90.04
15646;BME280;7922;43.622;1.476;2023-01-25T09:28:12;101633.19;;;-0.02;89.56
15646;BME280;7922;43.622;1.476;2023-01-25T09:30:38;101529.09;;;-0.64;89.99
15646;BME280;7922;43.622;1.476;2023-01-25T09:33:03;101531.81;;;-0.59;89.83
15646;BME280;7922;43.622;1.476;2023-01-25T09:35:29;101624.09;;;-0.18;89.67
15646;BME280;7922;43.622;1.476;2023-01-25T09:37:54;101634.19;;;0.03;88.86
15646;BME280;7922;43.622;1.476;2023-01-25T09:40:21;101534.41;;;-0.59;89.73
15646;BME280;7922;43.622;1.476;2023-01-25T09:45:31;101690.19;;;0.51;88.97
15646;BME280;7922;43.622;1.476;2023-01-25T09:53:52;101667.66;;;0.53;89.34
15646;BME280;7922;43.622;1.476;2023-01-25T09:56:24;101678.16;;;0.56;88.46
15646;BME280;7922;43.622;1.476;2023-01-25T09:58:56;101601.75;;;0.23;88.51
15646;BME280;7922;43.622;1.476;2023-01-25T10:04:04;101494.63;;;-0.22;88.88
15646;BME280;7922;43.622;1.476;2023-01-25T10:06:40;101654.00;;;0.63;88.39
15646;BME280;7922;43.622;1.476;2023-01-25T10:11:42;101661.78;;;0.96;87.68
15646;BME280;7922;43.622;1.476;2023-01-25T10:14:16;101512.63;;;0.02;87.81
15646;BME280;7922;43.622;1.476;2023-01-25T10:22:04;101461.94;;;-0.45;88.06
15646;BME280;7922;43.622;1.476;2023-01-25T10:24:42;101670.53;;;0.63;88.96
15646;BME280;7922;43.622;1.476;2023-01-25T10:29:59;101531.78;;;0.04;88.50
15646;BME280;7922;43.622;1.476;2023-01-25T10:32:29;101665.75;;;0.80;89.15
15646;BME280;7922;43.622;1.476;2023-01-25T10:34:56;101650.09;;;0.80;88.78
15646;BME280;7922;43.622;1.476;2023-01-25T10:37:31;101500.38;;;-0.01;88.74
15646;BME280;7922;43.622;1.476;2023-01-25T10:40:18;101639.22;;;0.98;87.91
15646;BME280;7922;43.622;1.476;2023-01-25T10:45:20;101592.28;;;0.62;88.20
15646;BME280;7922;43.622;1.476;2023-01-25T10:48:17;101589.97;;;0.76;88.23
15646;BME280;7922;43.622;1.476;2023-01-25T10:50:44;101587.69;;;0.88;87.69
15646;BME280;7922;43.622;1.476;2023-01-25T10:55:57;101612.88;;;1.27;86.88
15646;BME280;7922;43.622;1.476;2023-01-25T10:58:33;101614.25;;;1.50;86.18
15646;BME280;7922;43.622;1.476;2023-01-25T11:00:59;101576.38;;;1.28;85.26
15646;BME280;7922;43.622;1.476;2023-01-25T11:03:36;101488.19;;;0.71;84.93
15646;BME280;7922;43.622;1.476;2023-01-25T11:06:03;101541.22;;;1.11;84.30
15646;BME280;7922;43.622;1.476;2023-01-25T11:10:54;101563.56;;;1.39;84.50
15646;BME280;7922;43.622;1.476;2023-01-25T11:13:31;101488.47;;;0.85;83.68
15646;BME280;7922;43.622;1.476;2023-01-25T11:18:27;101436.78;;;0.65;83.75
15646;BME280;7922;43.622;1.476;2023-01-25T11:21:18;101603.25;;;1.66;83.27
15646;BME280;7922;43.622;1.476;2023-01-25T11:26:22;101550.56;;;1.42;83.49
15646;BME280;7922;43.622;1.476;2023-01-25T11:28:47;101481.84;;;1.01;83.45
15646;BME280;7922;43.622;1.476;2023-01-25T11:31:15;101543.53;;;1.39;82.88
15646;BME280;7922;43.622;1.476;2023-01-25T11:33:41;101534.63;;;1.28;83.15
15646;BME280;7922;43.622;1.476;2023-01-25T11:38:55;101519.75;;;1.26;83.18
15646;BME280;7922;43.622;1.476;2023-01-25T11:41:44;101408.28;;;0.76;83.22
15646;BME280;7922;43.622;1.476;2023-01-25T11:46:58;101525.75;;;1.65;81.63
15646;BME280;7922;43.622;1.476;2023-01-25T11:49:41;101547.88;;;1.83;82.44
15646;BME280;7922;43.622;1.476;2023-01-25T11:54:44;101547.06;;;1.88;81.60
15646;BME280;7922;43.622;1.476;2023-01-25T11:57:28;101487.91;;;1.42;81.61
15646;BME280;7922;43.622;1.476;2023-01-25T12:00:20;101547.72;;;1.75;81.76
15646;BME280;7922;43.622;1.476;2023-01-25T12:03:00;101543.50;;;1.83;81.95
15646;BME280;7922;43.622;1.476;2023-01-25T12:08:40;101543.22;;;1.68;81.56
15646;BME280;7922;43.622;1.476;2023-01-25T12:11:23;101533.72;;;1.72;81.35
15646;BME280;7922;43.622;1.476;2023-01-25T12:14:13;101539.69;;;1.64;82.43
15646;BME280;7922;43.622;1.476;2023-01-25T12:19:55;101517.06;;;1.66;81.86
15646;BME280;7922;43.622;1.476;2023-01-25T12:30:47;101483.91;;;1.62;81.71
15646;BME280;7922;43.622;1.476;2023-01-25T12:36:00;101473.31;;;1.53;82.31
15646;BME280;7922;43.622;1.476;2023-01-25T12:38:47;101433.16;;;1.47;81.90
15646;BME280;7922;43.622;1.476;2023-01-25T12:41:38;101476.28;;;1.73;81.55
15646;BME280;7922;43.622;1.476;2023-01-25T12:49:34;101323.69;;;1.07;81.55
15646;BME280;7922;43.622;1.476;2023-01-25T12:52:05;101441.56;;;1.79;81.65
15646;BME280;7922;43.622;1.476;2023-01-25T12:54:36;101401.13;;;1.57;81.85
15646;BME280;7922;43.622;1.476;2023-01-25T12:59:46;101395.22;;;1.68;81.31
15646;BME280;7922;43.622;1.476;2023-01-25T13:04:57;101429.59;;;1.93;81.38
15646;BME280;7922;43.622;1.476;2023-01-25T13:07:41;101346.19;;;1.49;81.46
15646;BME280;7922;43.622;1.476;2023-01-25T13:10:34;101293.59;;;1.28;81.72
15646;BME280;7922;43.622;1.476;2023-01-25T13:13:19;101385.53;;;1.61;82.27
15646;BME280;7922;43.622;1.476;2023-01-25T13:15:45;101196.78;;;0.59;82.14
15646;BME280;7922;43.622;1.476;2023-01-25T13:20:53;101299.41;;;1.11;83.10
15646;BME280;7922;43.622;1.476;2023-01-25T13:28:53;101257.41;;;0.94;83.02
15646;BME280;7922;43.622;1.476;2023-01-25T13:34:09;101248.88;;;1.06;82.28
15646;BME280;7922;43.622;1.476;2023-01-25T13:44:25;101328.72;;;1.47;82.63
15646;BME280;7922;43.622;1.476;2023-01-25T13:46:52;101249.75;;;1.07;82.50
15646;BME280;7922;43.622;1.476;2023-01-25T13:49:21;101247.72;;;0.90;82.72
15646;BME280;7922;43.622;1.476;2023-01-25T13:51:48;101244.19;;;0.87;82.67
15646;BME280;7922;43.622;1.476;2023-01-25T13:54:15;101250.41;;;0.93;83.19
15646;BME280;7922;43.622;1.476;2023-01-25T13:56:40;101340.09;;;1.52;82.83
15646;BME280;7922;43.622;1.476;2023-01-25T13:59:05;101355.94;;;1.62;82.63
15646;BME280;7922;43.622;1.476;2023-01-25T14:01:33;101367.31;;;1.64;82.55
15646;BME280;7922;43.622;1.476;2023-01-25T14:04:02;101341.84;;;1.51;83.08
15646;BME280;7922;43.622;1.476;2023-01-25T14:06:33;101362.03;;;1.63;82.74
15646;BME280;7922;43.622;1.476;2023-01-25T14:09:03;101296.91;;;1.17;83.24
15646;BME280;7922;43.622;1.476;2023-01-25T14:11:30;101344.50;;;1.54;82.68
15646;BME280;7922;43.622;1.476;2023-01-25T14:16:23;101259.34;;;1.08;82.57
15646;BME280;7922;43.622;1.476;2023-01-25T14:18:49;101248.66;;;0.92;83.25
15646;BME280;7922;43.622;1.476;2023-01-25T14:21:19;101235.59;;;0.91;82.88
15646;BME280;7922;43.622;1.476;2023-01-25T14:23:46;101404.88;;;1.74;83.22
15646;BME280;7922;43.622;1.476;2023-01-25T14:26:21;101383.16;;;1.77;83.22
15646;BME280;7922;43.622;1.476;2023-01-25T14:28:53;101349.72;;;1.54;83.02
15646;BME280;7922;43.622;1.476;2023-01-25T14:31:22;101311.94;;;1.31;83.43
15646;BME280;7922;43.622;1.476;2023-01-25T14:33:49;101364.66;;;1.61;83.63
15646;BME280;7922;43.622;1.476;2023-01-25T14:36:14;101238.97;;;0.87;83.29
15646;BME280;7922;43.622;1.476;2023-01-25T14:38:41;101332.28;;;1.52;83.35
15646;BME280;7922;43.622;1.476;2023-01-25T14:43:53;101377.81;;;1.69;83.31
15646;BME280;7922;43.622;1.476;2023-01-25T14:46:32;101241.75;;;0.94;82.88
15646;BME280;7922;43.622;1.476;2023-01-25T14:49:18;101273.25;;;1.07;83.26
15646;BME280;7922;43.622;1.476;2023-01-25T14:52:02;101289.88;;;1.13;83.19